»·PEaware :: N515SL KSFF-KJAC

N515SL :: KSFF-KJAC

FLIGHT INFORMATION

Flight Status: Arrived
Operator: Privately registered:
United States
More flights under this callsign
Pilot: Doug L. (8712)
Aircraft: EMBRAER PHENOM 300
(E55P)
More flights by this aircraft type
Origin: KSFF Felts
United States
Destination: KJAC Jackson Hole
United States
More flights between these airports :: More routes between these airports
Route: +FELTS4 GEG DOXIE J52 DBS
File this flight plan on PilotEdge
Remarks:
Altitude:
(Current/Filed)
37,000ft
Speed:
(Current/Filed)
430kts
Departed: 28-Jul-18 09:04 AM
Arrived: 28-Jul-18 10:04 AM
Distance/Time
Traveled:
369nm/0:59
Distance/Time
To Go:
Arrived

Flight Plot

Page will automatically refresh every two minutes.

Flight plan parsing failed; only flown route is shown


Map Options




Map Legend


Flown Route
Filed Route
Departure Airport
Arrival Airport
Navaid (VOR, NDB)
Fix

Horizontal Profiles

Position Reports

Time Latitude Longitude Heading Altitude Ground
Speed
28-Jul-18 08:56 47.680046 -117.323153 69 1956ft 0kts
28-Jul-18 08:57 47.680046 -117.323153 69 1956ft 0kts
28-Jul-18 08:58 47.680046 -117.323153 69 1956ft 0kts
28-Jul-18 08:59 47.680046 -117.323153 69 1956ft 0kts
28-Jul-18 09:00 47.680046 -117.323153 69 1956ft 0kts
28-Jul-18 09:01 47.680270 -117.323438 245 1956ft 13kts
28-Jul-18 09:02 47.679081 -117.328583 251 1956ft 15kts
28-Jul-18 09:03 47.678685 -117.330431 256 1956ft 0kts
28-Jul-18 09:04 47.679366 -117.331040 56 1956ft 0kts
28-Jul-18 09:05 47.699174 -117.289723 55 3749ft 191kts
28-Jul-18 09:06 47.726452 -117.229833 56 7394ft 224kts
28-Jul-18 09:07 47.737618 -117.146166 138 11551ft 237kts
28-Jul-18 09:08 47.668297 -117.077054 145 12029ft 356kts
28-Jul-18 09:09 47.588478 -116.990767 144 15096ft 362kts
28-Jul-18 09:10 47.506011 -116.901604 144 17645ft 371kts
28-Jul-18 09:11 47.421422 -116.810506 145 19796ft 381kts
28-Jul-18 09:12 47.334702 -116.717455 145 22269ft 368kts
28-Jul-18 09:13 47.250490 -116.627502 146 24256ft 380kts
28-Jul-18 09:14 47.163861 -116.535343 146 26037ft 389kts
28-Jul-18 09:15 47.075076 -116.441279 147 27599ft 398kts
28-Jul-18 09:16 46.984567 -116.345790 147 29004ft 405kts
28-Jul-18 09:17 46.891926 -116.248479 147 30261ft 413kts
28-Jul-18 09:18 46.798947 -116.151148 148 32227ft 400kts
28-Jul-18 09:19 46.707201 -116.055686 148 33318ft 409kts
28-Jul-18 09:20 46.613979 -115.959040 149 34270ft 416kts
28-Jul-18 09:21 46.518449 -115.860419 149 35104ft 423kts
28-Jul-18 09:22 46.421827 -115.761109 149 35825ft 429kts
28-Jul-18 09:23 46.323590 -115.660588 150 36455ft 435kts
28-Jul-18 09:24 46.224079 -115.559223 150 37008ft 439kts
28-Jul-18 09:25 46.122594 -115.456359 150 37092ft 455kts
28-Jul-18 09:26 46.017313 -115.350101 149 37101ft 468kts
28-Jul-18 09:27 45.909208 -115.241498 150 37109ft 476kts
28-Jul-18 09:28 45.804243 -115.124608 141 37124ft 484kts
28-Jul-18 09:29 45.706447 -114.991932 141 37139ft 484kts
28-Jul-18 09:30 45.608395 -114.859995 142 37154ft 485kts
28-Jul-18 09:31 45.510073 -114.728414 142 37179ft 485kts
28-Jul-18 09:32 45.411700 -114.597433 142 37192ft 485kts
28-Jul-18 09:33 45.312833 -114.466457 142 37199ft 486kts
28-Jul-18 09:34 45.213505 -114.335528 142 37202ft 486kts
28-Jul-18 09:35 45.115573 -114.207076 143 37204ft 487kts
28-Jul-18 09:36 45.016121 -114.072110 133 37200ft 495kts
28-Jul-18 09:37 44.937664 -113.910830 129 37202ft 500kts
28-Jul-18 09:38 44.858966 -113.748643 129 37207ft 501kts
28-Jul-18 09:39 44.779774 -113.586456 129 37213ft 502kts
28-Jul-18 09:40 44.700221 -113.424465 129 37218ft 503kts
28-Jul-18 09:41 44.622106 -113.266234 130 35290ft 489kts
28-Jul-18 09:42 44.544016 -113.109036 130 33590ft 492kts
28-Jul-18 09:43 44.465028 -112.950856 130 31893ft 497kts
28-Jul-18 09:44 44.385503 -112.792434 130 30197ft 498kts
28-Jul-18 09:45 44.305631 -112.634194 130 28493ft 495kts
28-Jul-18 09:46 44.226321 -112.477925 130 26796ft 491kts
28-Jul-18 09:47 44.147783 -112.323789 128 25099ft 486kts
28-Jul-18 09:48 44.108343 -112.139528 100 23378ft 525kts
28-Jul-18 09:49 44.088679 -111.940192 98 21776ft 509kts
28-Jul-18 09:50 44.071539 -111.748198 98 20281ft 496kts
28-Jul-18 09:51 44.054728 -111.559249 97 18776ft 485kts
28-Jul-18 09:52 44.038754 -111.380252 97 17510ft 450kts
28-Jul-18 09:53 44.022942 -111.205375 97 16517ft 474kts
28-Jul-18 09:54 44.007459 -111.034981 97 15505ft 420kts
28-Jul-18 09:55 43.993488 -110.880485 97 14499ft 392kts
28-Jul-18 09:56 43.980697 -110.735516 97 14015ft 340kts
28-Jul-18 09:57 43.969933 -110.618143 108 13742ft 298kts
28-Jul-18 09:58 43.904176 -110.581386 204 12487ft 270kts
28-Jul-18 09:59 43.842841 -110.625225 206 11496ft 239kts
28-Jul-18 10:00 43.779662 -110.654756 198 9867ft 230kts
28-Jul-18 10:01 43.727531 -110.679602 199 8813ft 158kts
28-Jul-18 10:02 43.689407 -110.697453 200 7960ft 142kts
28-Jul-18 10:03 43.652092 -110.715852 200 7221ft 135kts
28-Jul-18 10:04 43.616323 -110.733413 199 6491ft 131kts
28-Jul-18 10:05 43.599538 -110.740747 110 6454ft 10kts
28-Jul-18 10:06 43.599935 -110.739554 73 6454ft 11kts
28-Jul-18 10:07 43.599146 -110.739323 111 6454ft 0kts

Navigation Log

Ident Type
Flight plan parsing failed, navigation log unavailable